sensor_id;sensor_type;location;lat;lon;timestamp;temperature;humidity
14000;DHT22;7075;53.574;10.054;2022-11-25T00:01:03;6.40;99.90
14000;DHT22;7075;53.574;10.054;2022-11-25T00:03:29;6.30;99.90
14000;DHT22;7075;53.574;10.054;2022-11-25T00:05:55;6.40;99.90
14000;DHT22;7075;53.574;10.054;2022-11-25T00:08:20;6.30;99.90
14000;DHT22;7075;53.574;10.054;2022-11-25T00:10:46;6.40;99.90
14000;DHT22;7075;53.574;10.054;2022-11-25T00:13:11;6.40;99.90
14000;DHT22;7075;53.574;10.054;2022-11-25T00:15:37;6.30;99.90
14000;DHT22;7075;53.574;10.054;2022-11-25T00:18:04;6.30;99.90
14000;DHT22;7075;53.574;10.054;2022-11-25T00:20:29;6.30;99.90
14000;DHT22;7075;53.574;10.054;2022-11-25T00:22:55;6.30;99.90
14000;DHT22;7075;53.574;10.054;2022-11-25T00:25:20;6.30;99.90
14000;DHT22;7075;53.574;10.054;2022-11-25T00:27:46;6.30;99.90
14000;DHT22;7075;53.574;10.054;2022-11-25T00:30:18;6.20;99.90
14000;DHT22;7075;53.574;10.054;2022-11-25T00:32:43;6.20;99.90
14000;DHT22;7075;53.574;10.054;2022-11-25T00:35:09;6.20;99.90
14000;DHT22;7075;53.574;10.054;2022-11-25T00:37:34;6.30;99.90
14000;DHT22;7075;53.574;10.054;2022-11-25T00:40:00;6.30;99.90
14000;DHT22;7075;53.574;10.054;2022-11-25T00:42:25;6.30;99.90
14000;DHT22;7075;53.574;10.054;2022-11-25T00:45:09;6.30;99.90
14000;DHT22;7075;53.574;10.054;2022-11-25T00:47:35;6.20;99.90
14000;DHT22;7075;53.574;10.054;2022-11-25T00:50:00;6.20;99.90
14000;DHT22;7075;53.574;10.054;2022-11-25T00:52:26;6.20;99.90
14000;DHT22;7075;53.574;10.054;2022-11-25T00:54:53;6.30;99.90
14000;DHT22;7075;53.574;10.054;2022-11-25T00:57:21;6.20;99.90
14000;DHT22;7075;53.574;10.054;2022-11-25T00:59:48;6.20;99.90
14000;DHT22;7075;53.574;10.054;2022-11-25T01:02:14;6.20;99.90
14000;DHT22;7075;53.574;10.054;2022-11-25T01:04:41;6.20;99.90
14000;DHT22;7075;53.574;10.054;2022-11-25T01:07:06;6.20;99.90
14000;DHT22;7075;53.574;10.054;2022-11-25T01:09:32;6.20;99.90
14000;DHT22;7075;53.574;10.054;2022-11-25T01:11:57;6.20;99.90
14000;DHT22;7075;53.574;10.054;2022-11-25T01:14:24;6.20;99.90
14000;DHT22;7075;53.574;10.054;2022-11-25T01:16:50;6.30;99.90
14000;DHT22;7075;53.574;10.054;2022-11-25T01:19:17;6.20;99.90
14000;DHT22;7075;53.574;10.054;2022-11-25T01:21:43;6.20;99.90
14000;DHT22;7075;53.574;10.054;2022-11-25T01:24:09;6.20;99.90
14000;DHT22;7075;53.574;10.054;2022-11-25T01:26:36;6.20;99.90
14000;DHT22;7075;53.574;10.054;2022-11-25T01:29:05;6.30;99.90
14000;DHT22;7075;53.574;10.054;2022-11-25T01:31:33;6.20;99.90
14000;DHT22;7075;53.574;10.054;2022-11-25T01:34:10;6.20;99.90
14000;DHT22;7075;53.574;10.054;2022-11-25T01:36:36;6.20;99.90
14000;DHT22;7075;53.574;10.054;2022-11-25T01:39:02;6.20;99.90
14000;DHT22;7075;53.574;10.054;2022-11-25T01:41:31;6.20;99.90
14000;DHT22;7075;53.574;10.054;2022-11-25T01:44:19;6.20;99.90
14000;DHT22;7075;53.574;10.054;2022-11-25T01:49:47;6.20;99.90
14000;DHT22;7075;53.574;10.054;2022-11-25T01:52:23;6.30;99.90
14000;DHT22;7075;53.574;10.054;2022-11-25T01:54:56;6.30;99.90
14000;DHT22;7075;53.574;10.054;2022-11-25T01:57:28;6.20;99.90
14000;DHT22;7075;53.574;10.054;2022-11-25T01:59:58;6.30;99.90
14000;DHT22;7075;53.574;10.054;2022-11-25T02:02:27;6.20;99.90
14000;DHT22;7075;53.574;10.054;2022-11-25T02:04:53;6.20;99.90
14000;DHT22;7075;53.574;10.054;2022-11-25T02:07:30;6.20;99.90
14000;DHT22;7075;53.574;10.054;2022-11-25T02:09:57;6.20;99.90
14000;DHT22;7075;53.574;10.054;2022-11-25T02:12:24;6.20;99.90
14000;DHT22;7075;53.574;10.054;2022-11-25T02:14:52;6.20;99.90
14000;DHT22;7075;53.574;10.054;2022-11-25T02:17:19;6.10;99.90
14000;DHT22;7075;53.574;10.054;2022-11-25T02:20:08;6.10;99.90
14000;DHT22;7075;53.574;10.054;2022-11-25T02:25:27;6.20;99.90
14000;DHT22;7075;53.574;10.054;2022-11-25T02:27:57;6.10;99.90
14000;DHT22;7075;53.574;10.054;2022-11-25T02:30:23;6.10;99.90
14000;DHT22;7075;53.574;10.054;2022-11-25T02:32:49;6.00;99.90
14000;DHT22;7075;53.574;10.054;2022-11-25T02:35:32;6.10;99.90
14000;DHT22;7075;53.574;10.054;2022-11-25T02:40:57;6.00;99.90
14000;DHT22;7075;53.574;10.054;2022-11-25T02:43:26;6.00;99.90
14000;DHT22;7075;53.574;10.054;2022-11-25T02:48:24;5.90;99.90
14000;DHT22;7075;53.574;10.054;2022-11-25T02:50:50;5.90;99.90
14000;DHT22;7075;53.574;10.054;2022-11-25T02:53:17;5.90;99.90
14000;DHT22;7075;53.574;10.054;2022-11-25T02:55:42;5.90;99.90
14000;DHT22;7075;53.574;10.054;2022-11-25T02:58:09;6.00;99.90
14000;DHT22;7075;53.574;10.054;2022-11-25T03:00:34;6.00;99.90
14000;DHT22;7075;53.574;10.054;2022-11-25T03:03:00;6.00;99.90
14000;DHT22;7075;53.574;10.054;2022-11-25T03:05:26;6.00;99.90
14000;DHT22;7075;53.574;10.054;2022-11-25T03:07:52;5.90;99.90
14000;DHT22;7075;53.574;10.054;2022-11-25T03:10:17;5.80;99.90
14000;DHT22;7075;53.574;10.054;2022-11-25T03:12:43;5.80;99.90
14000;DHT22;7075;53.574;10.054;2022-11-25T03:15:09;5.70;99.90
14000;DHT22;7075;53.574;10.054;2022-11-25T03:17:35;5.70;99.90
14000;DHT22;7075;53.574;10.054;2022-11-25T03:20:00;5.70;99.90
14000;DHT22;7075;53.574;10.054;2022-11-25T03:22:26;5.80;99.90
14000;DHT22;7075;53.574;10.054;2022-11-25T03:24:51;5.70;99.90
14000;DHT22;7075;53.574;10.054;2022-11-25T03:27:17;5.70;99.90
14000;DHT22;7075;53.574;10.054;2022-11-25T03:29:43;5.70;99.90
14000;DHT22;7075;53.574;10.054;2022-11-25T03:32:08;5.70;99.90
14000;DHT22;7075;53.574;10.054;2022-11-25T03:34:34;5.60;99.90
14000;DHT22;7075;53.574;10.054;2022-11-25T03:36:59;5.60;99.90
14000;DHT22;7075;53.574;10.054;2022-11-25T03:39:25;5.70;99.90
14000;DHT22;7075;53.574;10.054;2022-11-25T03:41:50;5.80;99.90
14000;DHT22;7075;53.574;10.054;2022-11-25T03:44:16;5.70;99.90
14000;DHT22;7075;53.574;10.054;2022-11-25T03:46:41;5.70;99.90
14000;DHT22;7075;53.574;10.054;2022-11-25T03:49:07;5.70;99.90
14000;DHT22;7075;53.574;10.054;2022-11-25T03:51:33;5.70;99.90
14000;DHT22;7075;53.574;10.054;2022-11-25T03:53:58;5.70;99.90
14000;DHT22;7075;53.574;10.054;2022-11-25T03:56:24;5.70;99.90
14000;DHT22;7075;53.574;10.054;2022-11-25T03:58:50;5.70;99.90
14000;DHT22;7075;53.574;10.054;2022-11-25T04:01:15;5.70;99.90
14000;DHT22;7075;53.574;10.054;2022-11-25T04:03:41;5.70;99.90
14000;DHT22;7075;53.574;10.054;2022-11-25T04:06:06;5.70;99.90
14000;DHT22;7075;53.574;10.054;2022-11-25T04:08:32;5.70;99.90
14000;DHT22;7075;53.574;10.054;2022-11-25T04:10:58;5.60;99.90
14000;DHT22;7075;53.574;10.054;2022-11-25T04:13:23;5.60;99.90
14000;DHT22;7075;53.574;10.054;2022-11-25T04:15:50;5.70;99.90
14000;DHT22;7075;53.574;10.054;2022-11-25T04:18:17;5.70;99.90
14000;DHT22;7075;53.574;10.054;2022-11-25T04:20:43;5.70;99.90
14000;DHT22;7075;53.574;10.054;2022-11-25T04:23:09;5.70;99.90
14000;DHT22;7075;53.574;10.054;2022-11-25T04:25:36;5.70;99.90
14000;DHT22;7075;53.574;10.054;2022-11-25T04:28:02;5.70;99.90
14000;DHT22;7075;53.574;10.054;2022-11-25T04:30:28;5.70;99.90
14000;DHT22;7075;53.574;10.054;2022-11-25T04:32:54;5.70;99.90
14000;DHT22;7075;53.574;10.054;2022-11-25T04:35:20;5.70;99.90
14000;DHT22;7075;53.574;10.054;2022-11-25T04:37:46;5.70;99.90
14000;DHT22;7075;53.574;10.054;2022-11-25T04:40:12;5.70;99.90
14000;DHT22;7075;53.574;10.054;2022-11-25T04:42:38;5.70;99.90
14000;DHT22;7075;53.574;10.054;2022-11-25T04:45:10;5.60;99.90
14000;DHT22;7075;53.574;10.054;2022-11-25T04:47:37;5.60;99.90
14000;DHT22;7075;53.574;10.054;2022-11-25T04:50:04;5.60;99.90
14000;DHT22;7075;53.574;10.054;2022-11-25T04:52:30;5.60;99.90
14000;DHT22;7075;53.574;10.054;2022-11-25T04:55:11;5.60;99.90
14000;DHT22;7075;53.574;10.054;2022-11-25T04:57:37;5.60;99.90
14000;DHT22;7075;53.574;10.054;2022-11-25T05:00:03;5.70;99.90
14000;DHT22;7075;53.574;10.054;2022-11-25T05:02:29;5.60;99.90
14000;DHT22;7075;53.574;10.054;2022-11-25T05:04:56;5.60;99.90
14000;DHT22;7075;53.574;10.054;2022-11-25T05:07:23;5.70;99.90
14000;DHT22;7075;53.574;10.054;2022-11-25T05:09:49;5.60;99.90
14000;DHT22;7075;53.574;10.054;2022-11-25T05:12:21;5.60;99.90
14000;DHT22;7075;53.574;10.054;2022-11-25T05:14:48;5.60;99.90
14000;DHT22;7075;53.574;10.054;2022-11-25T05:17:16;5.60;99.90
14000;DHT22;7075;53.574;10.054;2022-11-25T05:19:41;5.60;99.90
14000;DHT22;7075;53.574;10.054;2022-11-25T05:22:19;5.60;99.90
14000;DHT22;7075;53.574;10.054;2022-11-25T05:24:45;5.60;99.90
14000;DHT22;7075;53.574;10.054;2022-11-25T05:27:10;5.60;99.90
14000;DHT22;7075;53.574;10.054;2022-11-25T05:29:36;5.60;99.90
14000;DHT22;7075;53.574;10.054;2022-11-25T05:32:03;5.60;99.90
14000;DHT22;7075;53.574;10.054;2022-11-25T05:34:29;5.60;99.90
14000;DHT22;7075;53.574;10.054;2022-11-25T05:36:55;5.60;99.90
14000;DHT22;7075;53.574;10.054;2022-11-25T05:39:20;5.60;99.90
14000;DHT22;7075;53.574;10.054;2022-11-25T05:41:46;5.60;99.90
14000;DHT22;7075;53.574;10.054;2022-11-25T05:44:12;5.60;99.90
14000;DHT22;7075;53.574;10.054;2022-11-25T05:46:37;5.60;99.90
14000;DHT22;7075;53.574;10.054;2022-11-25T05:49:03;5.70;99.90
14000;DHT22;7075;53.574;10.054;2022-11-25T05:51:29;5.70;99.90
14000;DHT22;7075;53.574;10.054;2022-11-25T05:53:55;5.70;99.90
14000;DHT22;7075;53.574;10.054;2022-11-25T05:56:21;5.70;99.90
14000;DHT22;7075;53.574;10.054;2022-11-25T05:58:46;5.70;99.90
14000;DHT22;7075;53.574;10.054;2022-11-25T06:01:13;5.70;99.90
14000;DHT22;7075;53.574;10.054;2022-11-25T06:03:40;5.70;99.90
14000;DHT22;7075;53.574;10.054;2022-11-25T06:06:07;5.70;99.90
14000;DHT22;7075;53.574;10.054;2022-11-25T06:08:34;5.80;99.90
14000;DHT22;7075;53.574;10.054;2022-11-25T06:11:04;5.80;99.90
14000;DHT22;7075;53.574;10.054;2022-11-25T06:13:30;5.80;99.90
14000;DHT22;7075;53.574;10.054;2022-11-25T06:15:55;5.80;99.90
14000;DHT22;7075;53.574;10.054;2022-11-25T06:18:21;5.80;99.90
14000;DHT22;7075;53.574;10.054;2022-11-25T06:20:57;5.80;99.90
14000;DHT22;7075;53.574;10.054;2022-11-25T06:23:24;5.80;99.90
14000;DHT22;7075;53.574;10.054;2022-11-25T06:25:50;5.80;99.90
14000;DHT22;7075;53.574;10.054;2022-11-25T06:28:16;5.90;99.90
14000;DHT22;7075;53.574;10.054;2022-11-25T06:30:42;5.90;99.90
14000;DHT22;7075;53.574;10.054;2022-11-25T06:33:07;5.90;99.90
14000;DHT22;7075;53.574;10.054;2022-11-25T06:35:33;5.90;99.90
14000;DHT22;7075;53.574;10.054;2022-11-25T06:37:58;5.80;99.90
14000;DHT22;7075;53.574;10.054;2022-11-25T06:40:24;5.80;99.90
14000;DHT22;7075;53.574;10.054;2022-11-25T06:42:50;5.90;99.90
14000;DHT22;7075;53.574;10.054;2022-11-25T06:45:16;5.90;99.90
14000;DHT22;7075;53.574;10.054;2022-11-25T06:47:42;5.90;99.90
14000;DHT22;7075;53.574;10.054;2022-11-25T06:50:07;5.90;99.90
14000;DHT22;7075;53.574;10.054;2022-11-25T06:52:33;5.90;99.90
14000;DHT22;7075;53.574;10.054;2022-11-25T06:54:59;5.90;99.90
14000;DHT22;7075;53.574;10.054;2022-11-25T06:57:24;5.90;99.90
14000;DHT22;7075;53.574;10.054;2022-11-25T06:59:50;6.00;99.90
14000;DHT22;7075;53.574;10.054;2022-11-25T07:02:16;5.90;99.90
14000;DHT22;7075;53.574;10.054;2022-11-25T07:04:42;5.90;99.90
14000;DHT22;7075;53.574;10.054;2022-11-25T07:07:07;5.90;99.90
14000;DHT22;7075;53.574;10.054;2022-11-25T07:09:33;5.90;99.90
14000;DHT22;7075;53.574;10.054;2022-11-25T07:11:59;5.90;99.90
14000;DHT22;7075;53.574;10.054;2022-11-25T07:14:25;5.90;99.90
14000;DHT22;7075;53.574;10.054;2022-11-25T07:16:51;5.90;99.90
14000;DHT22;7075;53.574;10.054;2022-11-25T07:19:17;5.90;99.90
14000;DHT22;7075;53.574;10.054;2022-11-25T07:21:44;5.90;99.90
14000;DHT22;7075;53.574;10.054;2022-11-25T07:24:12;5.80;99.90
14000;DHT22;7075;53.574;10.054;2022-11-25T07:26:39;5.90;99.90
14000;DHT22;7075;53.574;10.054;2022-11-25T07:29:08;5.90;99.90
14000;DHT22;7075;53.574;10.054;2022-11-25T07:31:39;5.90;99.90
14000;DHT22;7075;53.574;10.054;2022-11-25T07:34:16;6.00;99.90
14000;DHT22;7075;53.574;10.054;2022-11-25T07:36:46;6.00;99.90
14000;DHT22;7075;53.574;10.054;2022-11-25T07:39:14;6.00;99.90
14000;DHT22;7075;53.574;10.054;2022-11-25T07:41:41;6.00;99.90
14000;DHT22;7075;53.574;10.054;2022-11-25T07:44:09;6.00;99.90
14000;DHT22;7075;53.574;10.054;2022-11-25T07:46:37;6.00;99.90
14000;DHT22;7075;53.574;10.054;2022-11-25T07:49:06;5.80;99.90
14000;DHT22;7075;53.574;10.054;2022-11-25T07:51:35;5.80;99.90
14000;DHT22;7075;53.574;10.054;2022-11-25T07:54:03;5.90;99.90
14000;DHT22;7075;53.574;10.054;2022-11-25T07:56:29;5.90;99.90
14000;DHT22;7075;53.574;10.054;2022-11-25T07:58:56;5.90;99.90
14000;DHT22;7075;53.574;10.054;2022-11-25T08:01:22;5.90;99.90
14000;DHT22;7075;53.574;10.054;2022-11-25T08:03:48;6.00;99.90
14000;DHT22;7075;53.574;10.054;2022-11-25T08:06:20;6.00;99.90
14000;DHT22;7075;53.574;10.054;2022-11-25T08:08:46;6.00;99.90
14000;DHT22;7075;53.574;10.054;2022-11-25T08:11:18;6.00;99.90
14000;DHT22;7075;53.574;10.054;2022-11-25T08:13:44;5.90;99.90
14000;DHT22;7075;53.574;10.054;2022-11-25T08:16:12;5.90;99.90
14000;DHT22;7075;53.574;10.054;2022-11-25T08:18:38;5.90;99.90
14000;DHT22;7075;53.574;10.054;2022-11-25T08:21:06;6.00;99.90
14000;DHT22;7075;53.574;10.054;2022-11-25T08:23:38;6.00;99.90
14000;DHT22;7075;53.574;10.054;2022-11-25T08:26:13;6.00;99.90
14000;DHT22;7075;53.574;10.054;2022-11-25T08:28:40;6.00;99.90
14000;DHT22;7075;53.574;10.054;2022-11-25T08:31:11;6.10;99.90
14000;DHT22;7075;53.574;10.054;2022-11-25T08:33:37;6.00;99.90
14000;DHT22;7075;53.574;10.054;2022-11-25T08:36:04;6.10;99.90
14000;DHT22;7075;53.574;10.054;2022-11-25T08:38:30;6.20;99.90
14000;DHT22;7075;53.574;10.054;2022-11-25T08:40:55;6.30;99.90
14000;DHT22;7075;53.574;10.054;2022-11-25T08:43:22;6.20;99.90
14000;DHT22;7075;53.574;10.054;2022-11-25T08:45:48;6.30;99.90
14000;DHT22;7075;53.574;10.054;2022-11-25T08:48:15;6.30;99.90
14000;DHT22;7075;53.574;10.054;2022-11-25T08:50:52;6.30;99.90
14000;DHT22;7075;53.574;10.054;2022-11-25T08:53:18;6.30;99.90
14000;DHT22;7075;53.574;10.054;2022-11-25T08:55:44;6.30;99.90
14000;DHT22;7075;53.574;10.054;2022-11-25T08:58:10;6.40;99.90
14000;DHT22;7075;53.574;10.054;2022-11-25T09:00:39;6.40;99.90
14000;DHT22;7075;53.574;10.054;2022-11-25T09:03:06;6.40;99.90
14000;DHT22;7075;53.574;10.054;2022-11-25T09:05:32;6.40;99.90
14000;DHT22;7075;53.574;10.054;2022-11-25T09:08:04;6.40;99.90
14000;DHT22;7075;53.574;10.054;2022-11-25T09:10:31;6.40;99.90
14000;DHT22;7075;53.574;10.054;2022-11-25T09:12:58;6.30;99.90
14000;DHT22;7075;53.574;10.054;2022-11-25T09:15:24;6.30;99.90
14000;DHT22;7075;53.574;10.054;2022-11-25T09:17:58;6.40;99.90
14000;DHT22;7075;53.574;10.054;2022-11-25T09:20:25;6.30;99.90
14000;DHT22;7075;53.574;10.054;2022-11-25T09:22:50;6.30;99.90
14000;DHT22;7075;53.574;10.054;2022-11-25T09:25:16;6.40;99.90
14000;DHT22;7075;53.574;10.054;2022-11-25T09:27:42;6.40;99.90
14000;DHT22;7075;53.574;10.054;2022-11-25T09:30:08;6.30;99.90
14000;DHT22;7075;53.574;10.054;2022-11-25T09:32:34;6.30;99.90
14000;DHT22;7075;53.574;10.054;2022-11-25T09:35:00;6.30;99.90
14000;DHT22;7075;53.574;10.054;2022-11-25T09:37:26;6.40;99.90
14000;DHT22;7075;53.574;10.054;2022-11-25T09:39:52;6.40;99.90
14000;DHT22;7075;53.574;10.054;2022-11-25T09:56:11;6.60;99.90
14000;DHT22;7075;53.574;10.054;2022-11-25T09:58:45;6.60;99.90
14000;DHT22;7075;53.574;10.054;2022-11-25T10:01:18;6.60;99.90
14000;DHT22;7075;53.574;10.054;2022-11-25T10:03:52;6.60;99.90
14000;DHT22;7075;53.574;10.054;2022-11-25T10:09:13;6.60;99.90
14000;DHT22;7075;53.574;10.054;2022-11-25T10:11:53;6.60;99.90
14000;DHT22;7075;53.574;10.054;2022-11-25T10:19:58;6.50;99.90
14000;DHT22;7075;53.574;10.054;2022-11-25T10:22:33;6.50;99.90
14000;DHT22;7075;53.574;10.054;2022-11-25T10:31:01;6.60;99.90
14000;DHT22;7075;53.574;10.054;2022-11-25T10:33:35;6.60;99.90
14000;DHT22;7075;53.574;10.054;2022-11-25T10:38:57;6.60;99.90
14000;DHT22;7075;53.574;10.054;2022-11-25T10:41:29;6.70;99.90
14000;DHT22;7075;53.574;10.054;2022-11-25T10:43:55;6.70;99.90
14000;DHT22;7075;53.574;10.054;2022-11-25T10:49:06;6.70;99.90
14000;DHT22;7075;53.574;10.054;2022-11-25T10:51:46;6.60;99.90
14000;DHT22;7075;53.574;10.054;2022-11-25T10:56:59;6.60;99.90
14000;DHT22;7075;53.574;10.054;2022-11-25T10:59:33;6.70;99.90
14000;DHT22;7075;53.574;10.054;2022-11-25T11:02:18;6.70;99.90
14000;DHT22;7075;53.574;10.054;2022-11-25T11:07:39;6.90;99.90
14000;DHT22;7075;53.574;10.054;2022-11-25T11:10:15;6.90;99.90
14000;DHT22;7075;53.574;10.054;2022-11-25T11:13:18;6.90;99.90
14000;DHT22;7075;53.574;10.054;2022-11-25T11:15:45;6.90;99.90
14000;DHT22;7075;53.574;10.054;2022-11-25T11:21:05;7.00;99.90
14000;DHT22;7075;53.574;10.054;2022-11-25T11:23:46;6.90;99.90
14000;DHT22;7075;53.574;10.054;2022-11-25T11:26:28;7.00;99.90
14000;DHT22;7075;53.574;10.054;2022-11-25T11:28:59;7.00;99.90
14000;DHT22;7075;53.574;10.054;2022-11-25T11:31:38;7.00;99.90
14000;DHT22;7075;53.574;10.054;2022-11-25T11:40:13;7.10;99.90
14000;DHT22;7075;53.574;10.054;2022-11-25T11:54:06;7.20;99.90
14000;DHT22;7075;53.574;10.054;2022-11-25T11:59:47;7.20;99.90
14000;DHT22;7075;53.574;10.054;2022-11-25T12:08:02;7.30;99.90
14000;DHT22;7075;53.574;10.054;2022-11-25T12:10:38;7.30;99.90
14000;DHT22;7075;53.574;10.054;2022-11-25T12:15:44;7.40;99.90
14000;DHT22;7075;53.574;10.054;2022-11-25T12:21:12;7.40;99.90
14000;DHT22;7075;53.574;10.054;2022-11-25T12:23:53;7.50;99.90
14000;DHT22;7075;53.574;10.054;2022-11-25T12:26:40;7.40;99.90
14000;DHT22;7075;53.574;10.054;2022-11-25T12:29:15;7.50;99.90
14000;DHT22;7075;53.574;10.054;2022-11-25T12:31:49;7.50;99.90
14000;DHT22;7075;53.574;10.054;2022-11-25T12:34:40;7.50;99.90
14000;DHT22;7075;53.574;10.054;2022-11-25T12:37:15;7.50;99.90
14000;DHT22;7075;53.574;10.054;2022-11-25T12:39:59;7.60;99.90
14000;DHT22;7075;53.574;10.054;2022-11-25T12:42:28;7.60;99.90
14000;DHT22;7075;53.574;10.054;2022-11-25T12:45:03;7.60;99.90
14000;DHT22;7075;53.574;10.054;2022-11-25T12:47:31;7.60;99.90
14000;DHT22;7075;53.574;10.054;2022-11-25T12:49:57;7.60;99.90
14000;DHT22;7075;53.574;10.054;2022-11-25T12:55:26;7.70;99.90
14000;DHT22;7075;53.574;10.054;2022-11-25T13:06:48;7.80;99.90
14000;DHT22;7075;53.574;10.054;2022-11-25T13:17:45;7.60;99.90
14000;DHT22;7075;53.574;10.054;2022-11-25T13:25:33;7.70;99.90
14000;DHT22;7075;53.574;10.054;2022-11-25T13:28:00;7.80;99.90
14000;DHT22;7075;53.574;10.054;2022-11-25T13:30:36;7.80;99.90
14000;DHT22;7075;53.574;10.054;2022-11-25T13:33:53;7.70;99.90
14000;DHT22;7075;53.574;10.054;2022-11-25T13:35:55;7.60;99.90
14000;DHT22;7075;53.574;10.054;2022-11-25T13:41:01;7.70;99.90
14000;DHT22;7075;53.574;10.054;2022-11-25T13:43:28;7.70;99.90
14000;DHT22;7075;53.574;10.054;2022-11-25T13:45:54;7.60;99.90
14000;DHT22;7075;53.574;10.054;2022-11-25T13:48:28;7.60;99.90
14000;DHT22;7075;53.574;10.054;2022-11-25T13:51:22;7.70;99.90
14000;DHT22;7075;53.574;10.054;2022-11-25T13:53:54;7.80;99.90
14000;DHT22;7075;53.574;10.054;2022-11-25T13:56:33;7.80;99.90
14000;DHT22;7075;53.574;10.054;2022-11-25T14:01:40;8.00;99.90
14000;DHT22;7075;53.574;10.054;2022-11-25T14:04:07;8.00;99.90
14000;DHT22;7075;53.574;10.054;2022-11-25T14:25:53;8.00;99.90
14000;DHT22;7075;53.574;10.054;2022-11-25T14:28:40;8.00;99.90
14000;DHT22;7075;53.574;10.054;2022-11-25T14:31:12;8.00;99.90
14000;DHT22;7075;53.574;10.054;2022-11-25T14:33:55;8.00;99.90
14000;DHT22;7075;53.574;10.054;2022-11-25T14:36:28;8.10;99.90
14000;DHT22;7075;53.574;10.054;2022-11-25T14:39:01;8.10;99.90
14000;DHT22;7075;53.574;10.054;2022-11-25T14:41:31;8.10;99.90
14000;DHT22;7075;53.574;10.054;2022-11-25T14:44:04;8.00;99.90
14000;DHT22;7075;53.574;10.054;2022-11-25T14:46:32;8.00;99.90
14000;DHT22;7075;53.574;10.054;2022-11-25T14:49:00;8.00;99.90
14000;DHT22;7075;53.574;10.054;2022-11-25T14:51:36;7.90;99.90
14000;DHT22;7075;53.574;10.054;2022-11-25T14:54:07;8.00;99.90
14000;DHT22;7075;53.574;10.054;2022-11-25T14:56:35;8.00;99.90
14000;DHT22;7075;53.574;10.054;2022-11-25T14:59:01;8.00;99.90
14000;DHT22;7075;53.574;10.054;2022-11-25T15:01:33;8.00;99.90
14000;DHT22;7075;53.574;10.054;2022-11-25T15:06:39;8.00;99.90
14000;DHT22;7075;53.574;10.054;2022-11-25T15:09:19;8.00;99.90
14000;DHT22;7075;53.574;10.054;2022-11-25T15:11:45;8.10;99.90
14000;DHT22;7075;53.574;10.054;2022-11-25T15:14:27;8.10;99.90
14000;DHT22;7075;53.574;10.054;2022-11-25T15:16:54;8.10;99.90
14000;DHT22;7075;53.574;10.054;2022-11-25T15:19:23;8.10;99.90
14000;DHT22;7075;53.574;10.054;2022-11-25T15:22:00;8.10;99.90
14000;DHT22;7075;53.574;10.054;2022-11-25T15:24:29;8.10;99.90
14000;DHT22;7075;53.574;10.054;2022-11-25T15:26:58;8.10;99.90
14000;DHT22;7075;53.574;10.054;2022-11-25T15:29:28;8.10;99.90
14000;DHT22;7075;53.574;10.054;2022-11-25T15:31:55;8.20;99.90
14000;DHT22;7075;53.574;10.054;2022-11-25T15:34:22;8.20;99.90
14000;DHT22;7075;53.574;10.054;2022-11-25T15:36:49;8.20;99.90
14000;DHT22;7075;53.574;10.054;2022-11-25T15:44:36;8.40;99.90
14000;DHT22;7075;53.574;10.054;2022-11-25T15:47:05;8.40;99.90
14000;DHT22;7075;53.574;10.054;2022-11-25T15:49:34;8.40;99.90
14000;DHT22;7075;53.574;10.054;2022-11-25T15:52:19;8.40;99.90
14000;DHT22;7075;53.574;10.054;2022-11-25T15:54:48;8.40;99.90
14000;DHT22;7075;53.574;10.054;2022-11-25T15:57:33;8.40;99.90
14000;DHT22;7075;53.574;10.054;2022-11-25T16:02:47;8.40;99.90
14000;DHT22;7075;53.574;10.054;2022-11-25T16:05:23;8.40;99.90
14000;DHT22;7075;53.574;10.054;2022-11-25T16:10:18;8.40;99.90
14000;DHT22;7075;53.574;10.054;2022-11-25T16:13:14;8.50;99.90
14000;DHT22;7075;53.574;10.054;2022-11-25T16:18:13;8.50;99.90
14000;DHT22;7075;53.574;10.054;2022-11-25T16:20:54;8.40;99.90
14000;DHT22;7075;53.574;10.054;2022-11-25T16:23:21;8.40;99.90
14000;DHT22;7075;53.574;10.054;2022-11-25T16:25:49;8.40;99.90
14000;DHT22;7075;53.574;10.054;2022-11-25T16:28:20;8.50;99.90
14000;DHT22;7075;53.574;10.054;2022-11-25T16:30:47;8.50;99.90
14000;DHT22;7075;53.574;10.054;2022-11-25T16:33:13;8.50;99.90
14000;DHT22;7075;53.574;10.054;2022-11-25T16:35:39;8.40;99.90
14000;DHT22;7075;53.574;10.054;2022-11-25T16:38:04;8.40;99.90
14000;DHT22;7075;53.574;10.054;2022-11-25T16:40:30;8.40;99.90
14000;DHT22;7075;53.574;10.054;2022-11-25T16:43:01;8.40;99.90
14000;DHT22;7075;53.574;10.054;2022-11-25T16:45:29;8.40;99.90
14000;DHT22;7075;53.574;10.054;2022-11-25T16:47:55;8.40;99.90
14000;DHT22;7075;53.574;10.054;2022-11-25T16:50:22;8.40;99.90
14000;DHT22;7075;53.574;10.054;2022-11-25T16:52:50;8.40;99.90
14000;DHT22;7075;53.574;10.054;2022-11-25T16:55:19;8.40;99.90
14000;DHT22;7075;53.574;10.054;2022-11-25T16:57:49;8.40;99.90
14000;DHT22;7075;53.574;10.054;2022-11-25T17:00:18;8.40;99.90
14000;DHT22;7075;53.574;10.054;2022-11-25T17:02:44;8.40;99.90
14000;DHT22;7075;53.574;10.054;2022-11-25T17:05:19;8.40;99.90
14000;DHT22;7075;53.574;10.054;2022-11-25T17:07:47;8.40;99.90
14000;DHT22;7075;53.574;10.054;2022-11-25T17:10:15;8.50;99.90
14000;DHT22;7075;53.574;10.054;2022-11-25T17:12:45;8.50;99.90
14000;DHT22;7075;53.574;10.054;2022-11-25T17:15:20;8.50;99.90
14000;DHT22;7075;53.574;10.054;2022-11-25T17:17:48;8.50;99.90
14000;DHT22;7075;53.574;10.054;2022-11-25T17:20:20;8.60;99.90
14000;DHT22;7075;53.574;10.054;2022-11-25T17:22:50;8.60;99.90
14000;DHT22;7075;53.574;10.054;2022-11-25T17:25:16;8.60;99.90
14000;DHT22;7075;53.574;10.054;2022-11-25T17:27:43;8.60;99.90
14000;DHT22;7075;53.574;10.054;2022-11-25T17:30:24;8.60;99.90
14000;DHT22;7075;53.574;10.054;2022-11-25T17:33:01;8.60;99.90
14000;DHT22;7075;53.574;10.054;2022-11-25T17:35:28;8.60;99.90
14000;DHT22;7075;53.574;10.054;2022-11-25T17:37:56;8.60;99.90
14000;DHT22;7075;53.574;10.054;2022-11-25T17:40:23;8.60;99.90
14000;DHT22;7075;53.574;10.054;2022-11-25T17:42:49;8.70;99.90
14000;DHT22;7075;53.574;10.054;2022-11-25T17:45:17;8.70;99.90
14000;DHT22;7075;53.574;10.054;2022-11-25T17:47:44;8.70;99.90
14000;DHT22;7075;53.574;10.054;2022-11-25T17:50:22;8.80;99.90
14000;DHT22;7075;53.574;10.054;2022-11-25T17:52:48;8.80;99.90
14000;DHT22;7075;53.574;10.054;2022-11-25T17:55:15;8.80;99.90
14000;DHT22;7075;53.574;10.054;2022-11-25T17:57:48;8.80;99.90
14000;DHT22;7075;53.574;10.054;2022-11-25T18:00:17;8.80;99.90
14000;DHT22;7075;53.574;10.054;2022-11-25T18:02:44;8.80;99.90
14000;DHT22;7075;53.574;10.054;2022-11-25T18:05:16;8.80;99.90
14000;DHT22;7075;53.574;10.054;2022-11-25T18:07:42;8.80;99.90
14000;DHT22;7075;53.574;10.054;2022-11-25T18:10:10;8.80;99.90
14000;DHT22;7075;53.574;10.054;2022-11-25T18:12:38;8.70;99.90
14000;DHT22;7075;53.574;10.054;2022-11-25T18:15:05;8.70;99.90
14000;DHT22;7075;53.574;10.054;2022-11-25T18:17:35;8.70;99.90
14000;DHT22;7075;53.574;10.054;2022-11-25T18:22:43;8.80;99.90
14000;DHT22;7075;53.574;10.054;2022-11-25T18:25:14;8.80;99.90
14000;DHT22;7075;53.574;10.054;2022-11-25T18:27:41;8.80;99.90
14000;DHT22;7075;53.574;10.054;2022-11-25T18:30:16;8.80;99.90